sensor_id;sensor_type;location;lat;lon;timestamp;temperature;humidity
4366;DHT22;2196;47.422;9.656;2023-06-14T00:14:48;16.20;90.60
4366;DHT22;2196;47.422;9.656;2023-06-14T00:17:15;16.10;91.40
4366;DHT22;2196;47.422;9.656;2023-06-14T00:19:43;16.00;91.70
4366;DHT22;2196;47.422;9.656;2023-06-14T00:22:10;15.90;92.80
4366;DHT22;2196;47.422;9.656;2023-06-14T00:24:37;15.80;92.40
4366;DHT22;2196;47.422;9.656;2023-06-14T00:27:05;15.80;92.40
4366;DHT22;2196;47.422;9.656;2023-06-14T00:29:32;15.80;92.70
4366;DHT22;2196;47.422;9.656;2023-06-14T00:32:01;15.80;93.20
4366;DHT22;2196;47.422;9.656;2023-06-14T00:34:28;15.80;92.60
4366;DHT22;2196;47.422;9.656;2023-06-14T00:36:54;15.80;92.50
4366;DHT22;2196;47.422;9.656;2023-06-14T00:39:21;15.80;92.40
4366;DHT22;2196;47.422;9.656;2023-06-14T00:41:48;15.80;92.60
4366;DHT22;2196;47.422;9.656;2023-06-14T00:44:16;15.90;92.40
4366;DHT22;2196;47.422;9.656;2023-06-14T00:46:45;15.80;93.50
4366;DHT22;2196;47.422;9.656;2023-06-14T00:49:14;15.80;93.80
4366;DHT22;2196;47.422;9.656;2023-06-14T00:51:42;15.80;93.10
4366;DHT22;2196;47.422;9.656;2023-06-14T00:54:09;15.80;93.10
4366;DHT22;2196;47.422;9.656;2023-06-14T00:56:36;15.80;93.10
4366;DHT22;2196;47.422;9.656;2023-06-14T00:59:04;15.70;94.70
4366;DHT22;2196;47.422;9.656;2023-06-14T01:01:31;15.50;95.20
4366;DHT22;2196;47.422;9.656;2023-06-14T01:03:59;15.40;95.10
4366;DHT22;2196;47.422;9.656;2023-06-14T01:06:37;15.30;95.60
4366;DHT22;2196;47.422;9.656;2023-06-14T01:09:15;15.20;95.40
4366;DHT22;2196;47.422;9.656;2023-06-14T01:11:50;15.10;96.10
4366;DHT22;2196;47.422;9.656;2023-06-14T01:14:21;15.10;95.80
4366;DHT22;2196;47.422;9.656;2023-06-14T01:16:48;15.00;96.10
4366;DHT22;2196;47.422;9.656;2023-06-14T01:19:19;15.00;96.00
4366;DHT22;2196;47.422;9.656;2023-06-14T01:21:49;14.90;96.00
4366;DHT22;2196;47.422;9.656;2023-06-14T01:24:18;14.90;96.10
4366;DHT22;2196;47.422;9.656;2023-06-14T01:26:49;15.00;96.10
4366;DHT22;2196;47.422;9.656;2023-06-14T01:29:17;14.90;96.30
4366;DHT22;2196;47.422;9.656;2023-06-14T01:31:45;14.90;96.40
4366;DHT22;2196;47.422;9.656;2023-06-14T01:34:12;14.80;96.50
4366;DHT22;2196;47.422;9.656;2023-06-14T01:36:41;14.80;96.40
4366;DHT22;2196;47.422;9.656;2023-06-14T01:39:08;14.80;96.30
4366;DHT22;2196;47.422;9.656;2023-06-14T01:41:39;14.80;96.40
4366;DHT22;2196;47.422;9.656;2023-06-14T01:44:06;14.80;96.70
4366;DHT22;2196;47.422;9.656;2023-06-14T01:46:34;14.70;96.50
4366;DHT22;2196;47.422;9.656;2023-06-14T01:49:01;14.70;96.80
4366;DHT22;2196;47.422;9.656;2023-06-14T01:51:28;14.70;96.70
4366;DHT22;2196;47.422;9.656;2023-06-14T01:53:55;14.60;97.10
4366;DHT22;2196;47.422;9.656;2023-06-14T01:56:23;14.60;97.50
4366;DHT22;2196;47.422;9.656;2023-06-14T01:58:51;14.50;97.20
4366;DHT22;2196;47.422;9.656;2023-06-14T02:01:19;14.50;97.00
4366;DHT22;2196;47.422;9.656;2023-06-14T02:03:46;14.40;97.30
4366;DHT22;2196;47.422;9.656;2023-06-14T02:06:14;14.40;97.80
4366;DHT22;2196;47.422;9.656;2023-06-14T02:08:42;14.40;97.30
4366;DHT22;2196;47.422;9.656;2023-06-14T02:11:09;14.40;97.30
4366;DHT22;2196;47.422;9.656;2023-06-14T02:13:36;14.40;97.30
4366;DHT22;2196;47.422;9.656;2023-06-14T02:16:04;14.40;97.80
4366;DHT22;2196;47.422;9.656;2023-06-14T02:18:31;14.40;98.10
4366;DHT22;2196;47.422;9.656;2023-06-14T02:20:58;14.40;97.90
4366;DHT22;2196;47.422;9.656;2023-06-14T02:23:25;14.40;98.00
4366;DHT22;2196;47.422;9.656;2023-06-14T02:25:52;14.30;98.30
4366;DHT22;2196;47.422;9.656;2023-06-14T02:28:19;14.30;98.10
4366;DHT22;2196;47.422;9.656;2023-06-14T02:30:46;14.30;97.70
4366;DHT22;2196;47.422;9.656;2023-06-14T02:33:15;14.30;97.90
4366;DHT22;2196;47.422;9.656;2023-06-14T02:35:43;14.20;98.70
4366;DHT22;2196;47.422;9.656;2023-06-14T02:38:10;14.20;98.90
4366;DHT22;2196;47.422;9.656;2023-06-14T02:40:37;14.10;98.80
4366;DHT22;2196;47.422;9.656;2023-06-14T02:43:04;14.10;99.50
4366;DHT22;2196;47.422;9.656;2023-06-14T02:45:31;14.10;98.90
4366;DHT22;2196;47.422;9.656;2023-06-14T02:47:58;14.00;99.20
4366;DHT22;2196;47.422;9.656;2023-06-14T02:50:26;14.00;99.30
4366;DHT22;2196;47.422;9.656;2023-06-14T02:52:53;14.00;99.20
4366;DHT22;2196;47.422;9.656;2023-06-14T02:55:22;13.90;99.40
4366;DHT22;2196;47.422;9.656;2023-06-14T02:57:49;13.90;99.00
4366;DHT22;2196;47.422;9.656;2023-06-14T03:00:17;13.90;99.60
4366;DHT22;2196;47.422;9.656;2023-06-14T03:02:45;13.90;99.20
4366;DHT22;2196;47.422;9.656;2023-06-14T03:05:12;13.80;99.30
4366;DHT22;2196;47.422;9.656;2023-06-14T03:07:41;13.80;99.40
4366;DHT22;2196;47.422;9.656;2023-06-14T03:10:10;13.80;99.40
4366;DHT22;2196;47.422;9.656;2023-06-14T03:12:38;13.80;99.10
4366;DHT22;2196;47.422;9.656;2023-06-14T03:15:06;13.80;99.40
4366;DHT22;2196;47.422;9.656;2023-06-14T03:17:34;13.80;99.90
4366;DHT22;2196;47.422;9.656;2023-06-14T03:20:05;13.80;99.90
4366;DHT22;2196;47.422;9.656;2023-06-14T03:22:33;13.70;99.90
4366;DHT22;2196;47.422;9.656;2023-06-14T03:25:02;13.80;99.90
4366;DHT22;2196;47.422;9.656;2023-06-14T03:27:30;13.70;99.90
4366;DHT22;2196;47.422;9.656;2023-06-14T03:29:57;13.70;99.90
4366;DHT22;2196;47.422;9.656;2023-06-14T03:32:24;13.70;99.90
4366;DHT22;2196;47.422;9.656;2023-06-14T03:34:51;13.60;99.90
4366;DHT22;2196;47.422;9.656;2023-06-14T03:37:21;13.60;99.90
4366;DHT22;2196;47.422;9.656;2023-06-14T03:39:48;13.60;99.90
4366;DHT22;2196;47.422;9.656;2023-06-14T03:42:17;13.60;99.90
4366;DHT22;2196;47.422;9.656;2023-06-14T03:44:46;13.60;99.90
4366;DHT22;2196;47.422;9.656;2023-06-14T03:47:13;13.60;99.90
4366;DHT22;2196;47.422;9.656;2023-06-14T03:49:43;13.60;99.90
4366;DHT22;2196;47.422;9.656;2023-06-14T03:52:10;13.60;99.90
4366;DHT22;2196;47.422;9.656;2023-06-14T03:54:37;13.60;99.90
4366;DHT22;2196;47.422;9.656;2023-06-14T03:57:04;13.70;99.90
4366;DHT22;2196;47.422;9.656;2023-06-14T03:59:33;13.70;99.90
4366;DHT22;2196;47.422;9.656;2023-06-14T04:02:00;13.70;99.90
4366;DHT22;2196;47.422;9.656;2023-06-14T04:04:28;13.70;99.90
4366;DHT22;2196;47.422;9.656;2023-06-14T04:06:55;13.70;99.90
4366;DHT22;2196;47.422;9.656;2023-06-14T04:09:24;13.70;99.90
4366;DHT22;2196;47.422;9.656;2023-06-14T04:11:51;13.80;99.90
4366;DHT22;2196;47.422;9.656;2023-06-14T04:14:18;13.80;99.90
4366;DHT22;2196;47.422;9.656;2023-06-14T04:16:48;13.80;99.90
4366;DHT22;2196;47.422;9.656;2023-06-14T04:19:15;13.90;99.90
4366;DHT22;2196;47.422;9.656;2023-06-14T04:21:42;14.10;99.90
4366;DHT22;2196;47.422;9.656;2023-06-14T04:24:09;14.20;99.90
4366;DHT22;2196;47.422;9.656;2023-06-14T04:26:39;14.20;99.90
4366;DHT22;2196;47.422;9.656;2023-06-14T04:29:06;14.30;99.90
4366;DHT22;2196;47.422;9.656;2023-06-14T04:31:33;14.30;99.90
4366;DHT22;2196;47.422;9.656;2023-06-14T04:34:04;14.40;99.70
4366;DHT22;2196;47.422;9.656;2023-06-14T04:36:32;14.40;99.30
4366;DHT22;2196;47.422;9.656;2023-06-14T04:39:00;14.40;99.00
4366;DHT22;2196;47.422;9.656;2023-06-14T04:41:29;14.50;99.80
4366;DHT22;2196;47.422;9.656;2023-06-14T04:43:57;14.60;99.90
4366;DHT22;2196;47.422;9.656;2023-06-14T04:46:27;14.60;99.90
4366;DHT22;2196;47.422;9.656;2023-06-14T04:48:54;14.70;99.90
4366;DHT22;2196;47.422;9.656;2023-06-14T04:51:23;14.90;97.70
4366;DHT22;2196;47.422;9.656;2023-06-14T04:53:55;15.20;97.30
4366;DHT22;2196;47.422;9.656;2023-06-14T04:56:24;15.30;96.80
4366;DHT22;2196;47.422;9.656;2023-06-14T04:58:51;15.50;96.70
4366;DHT22;2196;47.422;9.656;2023-06-14T05:01:19;15.70;96.50
4366;DHT22;2196;47.422;9.656;2023-06-14T05:03:46;15.80;96.60
4366;DHT22;2196;47.422;9.656;2023-06-14T05:06:14;15.90;96.60
4366;DHT22;2196;47.422;9.656;2023-06-14T05:08:44;16.00;96.70
4366;DHT22;2196;47.422;9.656;2023-06-14T05:11:11;16.10;97.00
4366;DHT22;2196;47.422;9.656;2023-06-14T05:13:38;16.40;96.60
4366;DHT22;2196;47.422;9.656;2023-06-14T05:16:06;16.80;96.10
4366;DHT22;2196;47.422;9.656;2023-06-14T05:18:34;17.50;95.80
4366;DHT22;2196;47.422;9.656;2023-06-14T05:21:01;18.20;94.80
4366;DHT22;2196;47.422;9.656;2023-06-14T05:23:29;18.80;94.40
4366;DHT22;2196;47.422;9.656;2023-06-14T05:25:58;19.60;94.60
4366;DHT22;2196;47.422;9.656;2023-06-14T05:28:25;20.50;93.20
4366;DHT22;2196;47.422;9.656;2023-06-14T05:30:52;21.40;92.40
4366;DHT22;2196;47.422;9.656;2023-06-14T05:33:19;22.20;91.70
4366;DHT22;2196;47.422;9.656;2023-06-14T05:35:47;23.00;90.10
4366;DHT22;2196;47.422;9.656;2023-06-14T05:38:15;23.30;89.30
4366;DHT22;2196;47.422;9.656;2023-06-14T05:40:44;23.80;89.00
4366;DHT22;2196;47.422;9.656;2023-06-14T05:43:13;24.30;89.00
4366;DHT22;2196;47.422;9.656;2023-06-14T05:45:40;24.60;86.40
4366;DHT22;2196;47.422;9.656;2023-06-14T05:48:07;24.60;87.50
4366;DHT22;2196;47.422;9.656;2023-06-14T05:50:34;24.40;88.90
4366;DHT22;2196;47.422;9.656;2023-06-14T05:53:02;24.80;87.30
4366;DHT22;2196;47.422;9.656;2023-06-14T05:55:31;25.10;88.40
4366;DHT22;2196;47.422;9.656;2023-06-14T05:57:58;25.20;88.40
4366;DHT22;2196;47.422;9.656;2023-06-14T06:00:26;25.30;89.10
4366;DHT22;2196;47.422;9.656;2023-06-14T06:02:53;25.80;86.40
4366;DHT22;2196;47.422;9.656;2023-06-14T06:05:22;26.40;84.90
4366;DHT22;2196;47.422;9.656;2023-06-14T06:07:49;27.10;83.60
4366;DHT22;2196;47.422;9.656;2023-06-14T06:10:16;27.30;83.70
4366;DHT22;2196;47.422;9.656;2023-06-14T06:12:43;27.50;83.60
4366;DHT22;2196;47.422;9.656;2023-06-14T06:15:12;27.50;83.90
4366;DHT22;2196;47.422;9.656;2023-06-14T06:17:41;27.60;83.30
4366;DHT22;2196;47.422;9.656;2023-06-14T06:20:09;27.60;80.40
4366;DHT22;2196;47.422;9.656;2023-06-14T06:22:37;27.20;85.20
4366;DHT22;2196;47.422;9.656;2023-06-14T06:25:05;26.90;85.10
4366;DHT22;2196;47.422;9.656;2023-06-14T06:27:32;26.90;82.20
4366;DHT22;2196;47.422;9.656;2023-06-14T06:29:59;26.90;82.50
4366;DHT22;2196;47.422;9.656;2023-06-14T06:32:26;27.50;82.70
4366;DHT22;2196;47.422;9.656;2023-06-14T06:34:54;27.60;80.40
4366;DHT22;2196;47.422;9.656;2023-06-14T06:37:22;27.10;82.10
4366;DHT22;2196;47.422;9.656;2023-06-14T06:39:49;26.80;81.30
4366;DHT22;2196;47.422;9.656;2023-06-14T06:42:16;27.20;88.20
4366;DHT22;2196;47.422;9.656;2023-06-14T06:44:46;27.30;83.50
4366;DHT22;2196;47.422;9.656;2023-06-14T06:47:16;27.70;82.50
4366;DHT22;2196;47.422;9.656;2023-06-14T06:49:43;27.20;81.00
4366;DHT22;2196;47.422;9.656;2023-06-14T06:52:12;27.40;81.30
4366;DHT22;2196;47.422;9.656;2023-06-14T06:54:39;27.20;84.90
4366;DHT22;2196;47.422;9.656;2023-06-14T06:57:06;28.00;80.30
4366;DHT22;2196;47.422;9.656;2023-06-14T06:59:34;28.50;79.40
4366;DHT22;2196;47.422;9.656;2023-06-14T07:02:01;28.50;78.90
4366;DHT22;2196;47.422;9.656;2023-06-14T07:04:28;29.20;77.40
4366;DHT22;2196;47.422;9.656;2023-06-14T07:06:55;28.90;80.20
4366;DHT22;2196;47.422;9.656;2023-06-14T07:09:23;28.90;76.30
4366;DHT22;2196;47.422;9.656;2023-06-14T07:11:51;28.60;81.80
4366;DHT22;2196;47.422;9.656;2023-06-14T07:14:18;28.80;82.40
4366;DHT22;2196;47.422;9.656;2023-06-14T07:16:45;28.80;79.40
4366;DHT22;2196;47.422;9.656;2023-06-14T07:19:12;28.70;78.00
4366;DHT22;2196;47.422;9.656;2023-06-14T07:21:39;28.90;78.10
4366;DHT22;2196;47.422;9.656;2023-06-14T07:24:06;29.40;77.80
4366;DHT22;2196;47.422;9.656;2023-06-14T07:26:35;30.00;75.20
4366;DHT22;2196;47.422;9.656;2023-06-14T07:29:02;30.10;75.50
4366;DHT22;2196;47.422;9.656;2023-06-14T07:31:29;30.00;76.10
4366;DHT22;2196;47.422;9.656;2023-06-14T07:33:56;30.30;76.00
4366;DHT22;2196;47.422;9.656;2023-06-14T07:36:23;29.90;76.30
4366;DHT22;2196;47.422;9.656;2023-06-14T07:38:50;30.00;82.90
4366;DHT22;2196;47.422;9.656;2023-06-14T07:41:17;30.30;80.20
4366;DHT22;2196;47.422;9.656;2023-06-14T07:43:46;30.30;80.60
4366;DHT22;2196;47.422;9.656;2023-06-14T07:46:13;30.30;76.90
4366;DHT22;2196;47.422;9.656;2023-06-14T07:48:41;30.20;77.10
4366;DHT22;2196;47.422;9.656;2023-06-14T07:51:08;29.50;77.80
4366;DHT22;2196;47.422;9.656;2023-06-14T07:53:35;29.50;79.10
4366;DHT22;2196;47.422;9.656;2023-06-14T07:56:02;27.90;78.60
4366;DHT22;2196;47.422;9.656;2023-06-14T07:58:29;28.40;83.20
4366;DHT22;2196;47.422;9.656;2023-06-14T08:00:58;29.20;79.50
4366;DHT22;2196;47.422;9.656;2023-06-14T08:03:27;29.40;79.70
4366;DHT22;2196;47.422;9.656;2023-06-14T08:05:54;28.70;80.30
4366;DHT22;2196;47.422;9.656;2023-06-14T08:08:22;29.50;76.60
4366;DHT22;2196;47.422;9.656;2023-06-14T08:10:49;29.90;74.90
4366;DHT22;2196;47.422;9.656;2023-06-14T08:13:16;30.60;74.20
4366;DHT22;2196;47.422;9.656;2023-06-14T08:15:43;30.20;74.10
4366;DHT22;2196;47.422;9.656;2023-06-14T08:18:12;30.50;73.10
4366;DHT22;2196;47.422;9.656;2023-06-14T08:20:39;30.60;74.20
4366;DHT22;2196;47.422;9.656;2023-06-14T08:23:07;30.70;72.60
4366;DHT22;2196;47.422;9.656;2023-06-14T08:25:34;31.00;75.00
4366;DHT22;2196;47.422;9.656;2023-06-14T08:28:02;31.00;71.60
4366;DHT22;2196;47.422;9.656;2023-06-14T08:30:29;31.10;72.70
4366;DHT22;2196;47.422;9.656;2023-06-14T08:32:56;31.30;71.70
4366;DHT22;2196;47.422;9.656;2023-06-14T08:35:26;31.30;70.30
4366;DHT22;2196;47.422;9.656;2023-06-14T08:37:53;31.30;71.50
4366;DHT22;2196;47.422;9.656;2023-06-14T08:40:23;31.10;69.70
4366;DHT22;2196;47.422;9.656;2023-06-14T08:42:51;31.30;75.00
4366;DHT22;2196;47.422;9.656;2023-06-14T08:45:19;31.60;69.30
4366;DHT22;2196;47.422;9.656;2023-06-14T08:47:47;32.00;69.70
4366;DHT22;2196;47.422;9.656;2023-06-14T08:50:20;30.40;69.10
4366;DHT22;2196;47.422;9.656;2023-06-14T08:52:55;30.80;73.90
4366;DHT22;2196;47.422;9.656;2023-06-14T08:55:23;30.50;68.80
4366;DHT22;2196;47.422;9.656;2023-06-14T08:57:54;30.00;66.70
4366;DHT22;2196;47.422;9.656;2023-06-14T09:00:22;30.00;72.00
4366;DHT22;2196;47.422;9.656;2023-06-14T09:02:50;29.60;73.80
4366;DHT22;2196;47.422;9.656;2023-06-14T09:05:22;28.90;69.40
4366;DHT22;2196;47.422;9.656;2023-06-14T09:07:49;29.10;70.60
4366;DHT22;2196;47.422;9.656;2023-06-14T09:10:18;30.30;68.60
4366;DHT22;2196;47.422;9.656;2023-06-14T09:12:47;30.50;70.10
4366;DHT22;2196;47.422;9.656;2023-06-14T09:15:14;30.60;69.40
4366;DHT22;2196;47.422;9.656;2023-06-14T09:17:42;30.70;69.80
4366;DHT22;2196;47.422;9.656;2023-06-14T09:20:10;31.00;71.90
4366;DHT22;2196;47.422;9.656;2023-06-14T09:22:39;31.20;68.60
4366;DHT22;2196;47.422;9.656;2023-06-14T09:25:07;30.60;70.00
4366;DHT22;2196;47.422;9.656;2023-06-14T09:27:36;30.80;68.90
4366;DHT22;2196;47.422;9.656;2023-06-14T09:30:06;30.80;66.80
4366;DHT22;2196;47.422;9.656;2023-06-14T09:32:37;31.30;68.00
4366;DHT22;2196;47.422;9.656;2023-06-14T09:35:05;30.90;68.80
4366;DHT22;2196;47.422;9.656;2023-06-14T09:37:33;31.00;67.20
4366;DHT22;2196;47.422;9.656;2023-06-14T09:40:01;31.00;67.20
4366;DHT22;2196;47.422;9.656;2023-06-14T09:42:30;31.20;67.50
4366;DHT22;2196;47.422;9.656;2023-06-14T09:44:58;31.30;66.30
4366;DHT22;2196;47.422;9.656;2023-06-14T09:47:25;31.60;72.10
4366;DHT22;2196;47.422;9.656;2023-06-14T09:49:52;31.10;73.40
4366;DHT22;2196;47.422;9.656;2023-06-14T09:52:23;31.70;67.90
4366;DHT22;2196;47.422;9.656;2023-06-14T09:54:52;31.70;69.70
4366;DHT22;2196;47.422;9.656;2023-06-14T09:57:23;31.20;68.90
4366;DHT22;2196;47.422;9.656;2023-06-14T09:59:55;31.60;77.00
4366;DHT22;2196;47.422;9.656;2023-06-14T10:02:28;31.70;70.40
4366;DHT22;2196;47.422;9.656;2023-06-14T10:05:03;31.80;69.00
4366;DHT22;2196;47.422;9.656;2023-06-14T10:07:34;31.50;66.90
4366;DHT22;2196;47.422;9.656;2023-06-14T10:10:02;31.90;70.00
4366;DHT22;2196;47.422;9.656;2023-06-14T10:12:30;32.30;63.90
4366;DHT22;2196;47.422;9.656;2023-06-14T10:14:58;32.10;71.50
4366;DHT22;2196;47.422;9.656;2023-06-14T10:17:35;32.20;68.60
4366;DHT22;2196;47.422;9.656;2023-06-14T10:20:14;31.30;66.30
4366;DHT22;2196;47.422;9.656;2023-06-14T10:22:55;31.70;65.90
4366;DHT22;2196;47.422;9.656;2023-06-14T10:25:28;31.50;67.30
4366;DHT22;2196;47.422;9.656;2023-06-14T10:28:14;31.10;71.30
4366;DHT22;2196;47.422;9.656;2023-06-14T10:31:04;30.60;72.60
4366;DHT22;2196;47.422;9.656;2023-06-14T10:33:33;30.20;73.00
4366;DHT22;2196;47.422;9.656;2023-06-14T10:36:23;30.60;69.30
4366;DHT22;2196;47.422;9.656;2023-06-14T10:38:57;30.00;70.30
4366;DHT22;2196;47.422;9.656;2023-06-14T10:41:27;30.10;66.20
4366;DHT22;2196;47.422;9.656;2023-06-14T10:44:30;30.50;67.50
4366;DHT22;2196;47.422;9.656;2023-06-14T10:46:59;30.60;71.50
4366;DHT22;2196;47.422;9.656;2023-06-14T10:49:42;30.60;72.30
4366;DHT22;2196;47.422;9.656;2023-06-14T10:52:10;29.80;69.50
4366;DHT22;2196;47.422;9.656;2023-06-14T10:54:56;29.40;71.30
4366;DHT22;2196;47.422;9.656;2023-06-14T10:57:25;28.90;67.80
4366;DHT22;2196;47.422;9.656;2023-06-14T10:59:52;28.90;72.60
4366;DHT22;2196;47.422;9.656;2023-06-14T11:05:15;28.50;74.70
4366;DHT22;2196;47.422;9.656;2023-06-14T11:07:52;28.60;79.80
4366;DHT22;2196;47.422;9.656;2023-06-14T11:10:26;28.20;74.70
4366;DHT22;2196;47.422;9.656;2023-06-14T11:12:59;28.00;71.90
4366;DHT22;2196;47.422;9.656;2023-06-14T11:15:30;28.10;67.90
4366;DHT22;2196;47.422;9.656;2023-06-14T11:17:57;28.10;76.00
4366;DHT22;2196;47.422;9.656;2023-06-14T11:20:30;28.20;76.20
4366;DHT22;2196;47.422;9.656;2023-06-14T11:22:58;27.80;74.50
4366;DHT22;2196;47.422;9.656;2023-06-14T11:25:26;27.60;78.80
4366;DHT22;2196;47.422;9.656;2023-06-14T11:27:54;27.50;77.50
4366;DHT22;2196;47.422;9.656;2023-06-14T11:30:21;27.40;74.50
4366;DHT22;2196;47.422;9.656;2023-06-14T11:32:49;27.50;73.80
4366;DHT22;2196;47.422;9.656;2023-06-14T11:35:17;27.50;69.80
4366;DHT22;2196;47.422;9.656;2023-06-14T11:37:46;27.30;68.80
4366;DHT22;2196;47.422;9.656;2023-06-14T11:40:13;27.40;70.20
4366;DHT22;2196;47.422;9.656;2023-06-14T11:42:41;27.20;71.10
4366;DHT22;2196;47.422;9.656;2023-06-14T11:45:09;27.10;69.70
4366;DHT22;2196;47.422;9.656;2023-06-14T11:47:37;27.10;72.20
4366;DHT22;2196;47.422;9.656;2023-06-14T11:50:06;26.80;74.60
4366;DHT22;2196;47.422;9.656;2023-06-14T11:52:34;26.80;75.70
4366;DHT22;2196;47.422;9.656;2023-06-14T11:55:03;26.90;74.40
4366;DHT22;2196;47.422;9.656;2023-06-14T11:57:34;26.80;73.30
4366;DHT22;2196;47.422;9.656;2023-06-14T12:00:03;26.90;74.70
4366;DHT22;2196;47.422;9.656;2023-06-14T12:02:33;26.80;74.30
4366;DHT22;2196;47.422;9.656;2023-06-14T12:05:04;26.90;74.30
4366;DHT22;2196;47.422;9.656;2023-06-14T12:07:33;27.00;78.70
4366;DHT22;2196;47.422;9.656;2023-06-14T12:10:09;27.00;72.80
4366;DHT22;2196;47.422;9.656;2023-06-14T12:12:38;26.90;76.40
4366;DHT22;2196;47.422;9.656;2023-06-14T12:15:07;27.00;75.90
4366;DHT22;2196;47.422;9.656;2023-06-14T12:17:35;26.80;75.50
4366;DHT22;2196;47.422;9.656;2023-06-14T12:20:08;26.40;76.40
4366;DHT22;2196;47.422;9.656;2023-06-14T12:22:39;26.50;75.80
4366;DHT22;2196;47.422;9.656;2023-06-14T12:25:08;26.20;68.70
4366;DHT22;2196;47.422;9.656;2023-06-14T12:27:35;26.10;69.20
4366;DHT22;2196;47.422;9.656;2023-06-14T12:30:07;26.30;74.10
4366;DHT22;2196;47.422;9.656;2023-06-14T12:32:34;26.40;73.30
4366;DHT22;2196;47.422;9.656;2023-06-14T12:35:01;26.40;73.20
4366;DHT22;2196;47.422;9.656;2023-06-14T12:37:28;26.20;68.90
4366;DHT22;2196;47.422;9.656;2023-06-14T12:39:55;26.20;69.80
4366;DHT22;2196;47.422;9.656;2023-06-14T12:42:23;26.40;69.10
4366;DHT22;2196;47.422;9.656;2023-06-14T12:44:50;26.40;68.60
4366;DHT22;2196;47.422;9.656;2023-06-14T12:47:18;26.00;70.80
4366;DHT22;2196;47.422;9.656;2023-06-14T12:49:45;26.20;70.90
4366;DHT22;2196;47.422;9.656;2023-06-14T12:52:12;26.00;69.70
4366;DHT22;2196;47.422;9.656;2023-06-14T12:54:39;26.10;73.00
4366;DHT22;2196;47.422;9.656;2023-06-14T12:57:06;26.10;73.30
4366;DHT22;2196;47.422;9.656;2023-06-14T12:59:35;26.20;69.80
4366;DHT22;2196;47.422;9.656;2023-06-14T13:02:15;26.30;73.30
4366;DHT22;2196;47.422;9.656;2023-06-14T13:04:46;26.30;72.10
4366;DHT22;2196;47.422;9.656;2023-06-14T13:07:13;26.30;70.50
4366;DHT22;2196;47.422;9.656;2023-06-14T13:09:40;26.30;76.70
4366;DHT22;2196;47.422;9.656;2023-06-14T13:12:09;26.20;70.50
4366;DHT22;2196;47.422;9.656;2023-06-14T13:14:38;26.20;72.00
4366;DHT22;2196;47.422;9.656;2023-06-14T13:17:07;26.30;75.20
4366;DHT22;2196;47.422;9.656;2023-06-14T13:19:34;26.40;76.20
4366;DHT22;2196;47.422;9.656;2023-06-14T13:22:01;26.20;69.20
4366;DHT22;2196;47.422;9.656;2023-06-14T13:24:29;25.90;72.80
4366;DHT22;2196;47.422;9.656;2023-06-14T13:26:57;26.00;70.00
4366;DHT22;2196;47.422;9.656;2023-06-14T13:29:24;26.00;74.00
4366;DHT22;2196;47.422;9.656;2023-06-14T13:31:53;26.10;73.60
4366;DHT22;2196;47.422;9.656;2023-06-14T13:34:21;26.20;71.80
4366;DHT22;2196;47.422;9.656;2023-06-14T13:36:49;26.20;75.50
4366;DHT22;2196;47.422;9.656;2023-06-14T13:39:16;26.10;70.60
4366;DHT22;2196;47.422;9.656;2023-06-14T13:41:42;26.00;72.80
4366;DHT22;2196;47.422;9.656;2023-06-14T13:44:10;26.10;73.80
4366;DHT22;2196;47.422;9.656;2023-06-14T13:46:39;26.00;73.90
4366;DHT22;2196;47.422;9.656;2023-06-14T13:49:09;26.10;72.20
4366;DHT22;2196;47.422;9.656;2023-06-14T13:51:37;26.00;72.60
4366;DHT22;2196;47.422;9.656;2023-06-14T13:54:04;26.00;73.60
4366;DHT22;2196;47.422;9.656;2023-06-14T13:56:31;26.00;72.00
4366;DHT22;2196;47.422;9.656;2023-06-14T13:58:59;25.90;73.10
4366;DHT22;2196;47.422;9.656;2023-06-14T14:01:26;26.00;69.60
4366;DHT22;2196;47.422;9.656;2023-06-14T14:03:54;25.90;73.80
4366;DHT22;2196;47.422;9.656;2023-06-14T14:06:23;25.80;73.70
4366;DHT22;2196;47.422;9.656;2023-06-14T14:08:50;25.80;74.10
4366;DHT22;2196;47.422;9.656;2023-06-14T14:11:18;26.00;73.00
4366;DHT22;2196;47.422;9.656;2023-06-14T14:13:45;26.00;72.50
4366;DHT22;2196;47.422;9.656;2023-06-14T14:16:13;26.00;70.50
4366;DHT22;2196;47.422;9.656;2023-06-14T14:18:40;26.00;72.30
4366;DHT22;2196;47.422;9.656;2023-06-14T14:21:07;26.00;72.50
4366;DHT22;2196;47.422;9.656;2023-06-14T14:23:36;25.90;70.00
4366;DHT22;2196;47.422;9.656;2023-06-14T14:26:03;25.80;73.40
4366;DHT22;2196;47.422;9.656;2023-06-14T14:28:30;25.70;70.10
4366;DHT22;2196;47.422;9.656;2023-06-14T14:30:58;25.80;72.20
4366;DHT22;2196;47.422;9.656;2023-06-14T14:33:25;25.80;70.50
4366;DHT22;2196;47.422;9.656;2023-06-14T14:35:52;25.80;69.50
4366;DHT22;2196;47.422;9.656;2023-06-14T14:38:19;25.70;71.20
4366;DHT22;2196;47.422;9.656;2023-06-14T14:40:47;25.80;71.80
4366;DHT22;2196;47.422;9.656;2023-06-14T14:43:14;25.80;69.90
4366;DHT22;2196;47.422;9.656;2023-06-14T14:45:41;25.80;70.80
4366;DHT22;2196;47.422;9.656;2023-06-14T14:48:08;25.70;69.10
4366;DHT22;2196;47.422;9.656;2023-06-14T14:50:35;25.70;69.30
4366;DHT22;2196;47.422;9.656;2023-06-14T14:53:02;25.70;70.90
4366;DHT22;2196;47.422;9.656;2023-06-14T14:55:29;25.70;70.40
4366;DHT22;2196;47.422;9.656;2023-06-14T14:57:57;25.60;68.70
4366;DHT22;2196;47.422;9.656;2023-06-14T15:00:24;25.60;73.60
4366;DHT22;2196;47.422;9.656;2023-06-14T15:02:51;25.60;70.10
4366;DHT22;2196;47.422;9.656;2023-06-14T15:05:18;25.50;65.60
4366;DHT22;2196;47.422;9.656;2023-06-14T15:07:45;25.60;69.90
4366;DHT22;2196;47.422;9.656;2023-06-14T15:10:12;25.60;69.20
4366;DHT22;2196;47.422;9.656;2023-06-14T15:12:39;25.70;70.60
4366;DHT22;2196;47.422;9.656;2023-06-14T15:15:09;25.70;67.60
4366;DHT22;2196;47.422;9.656;2023-06-14T15:17:36;25.70;68.40
4366;DHT22;2196;47.422;9.656;2023-06-14T15:20:03;25.70;71.50
4366;DHT22;2196;47.422;9.656;2023-06-14T15:22:31;25.70;70.70
4366;DHT22;2196;47.422;9.656;2023-06-14T15:24:58;25.70;68.90
4366;DHT22;2196;47.422;9.656;2023-06-14T15:27:25;25.70;69.70
4366;DHT22;2196;47.422;9.656;2023-06-14T15:29:53;25.60;67.80
4366;DHT22;2196;47.422;9.656;2023-06-14T15:32:21;25.70;66.80
4366;DHT22;2196;47.422;9.656;2023-06-14T15:34:48;25.80;67.50
4366;DHT22;2196;47.422;9.656;2023-06-14T15:37:18;25.80;67.60
4366;DHT22;2196;47.422;9.656;2023-06-14T15:39:45;25.80;68.60
4366;DHT22;2196;47.422;9.656;2023-06-14T15:42:12;25.90;68.70
4366;DHT22;2196;47.422;9.656;2023-06-14T15:44:39;25.90;68.20
4366;DHT22;2196;47.422;9.656;2023-06-14T15:47:07;25.90;66.70
4366;DHT22;2196;47.422;9.656;2023-06-14T15:49:36;25.70;68.60
4366;DHT22;2196;47.422;9.656;2023-06-14T15:52:03;25.70;67.20
4366;DHT22;2196;47.422;9.656;2023-06-14T15:54:31;25.70;68.70
4366;DHT22;2196;47.422;9.656;2023-06-14T15:56:58;25.70;68.90
4366;DHT22;2196;47.422;9.656;2023-06-14T15:59:25;25.70;66.10
4366;DHT22;2196;47.422;9.656;2023-06-14T16:01:53;25.60;66.40
4366;DHT22;2196;47.422;9.656;2023-06-14T16:04:20;25.60;69.30
4366;DHT22;2196;47.422;9.656;2023-06-14T16:06:49;25.70;65.90
4366;DHT22;2196;47.422;9.656;2023-06-14T16:09:16;25.70;66.40
4366;DHT22;2196;47.422;9.656;2023-06-14T16:11:43;25.60;67.20
4366;DHT22;2196;47.422;9.656;2023-06-14T16:14:10;25.50;67.50
4366;DHT22;2196;47.422;9.656;2023-06-14T16:16:36;25.50;68.20
4366;DHT22;2196;47.422;9.656;2023-06-14T16:19:03;25.50;68.20
4366;DHT22;2196;47.422;9.656;2023-06-14T16:21:31;25.50;68.00
4366;DHT22;2196;47.422;9.656;2023-06-14T16:24:01;25.50;68.20
4366;DHT22;2196;47.422;9.656;2023-06-14T16:26:27;25.50;68.60